Startpagina
METAR-TAF:

METAR-TAF

Vliegvelden :

Savannakhet, Laos

breedte: 16-33-24N, lengte: 104-45-34E, hoogte: 155 m

Actueel weer

Dit bericht is 2 uur en het 58 minuten geleden gemaakt, om 13:00 UTC
Wind 4 kt uit het oostnoordoosten
Temperatuur 26°C
Vochtigheid 74%
Druk 1015 hPa
Zicht: 5000 m
Verspreide wolken op 4000 ft
Gebroken wolken op 10000 ft
nevel

METAR: VLSK 151300Z 06004KT 5000 BR SCT040 BKN100 26/21 Q1015 NOSIG

Tijdstip: 22:58 (15:58 UTC)

Verwachting

Dit bericht is 4 uur en het 58 minuten geleden gemaakt, om 11:00 UTC
Verwachting geldig van 15 om 12 UTC tot 16 om 12 UTC
Wind 4 kt uit het oosten
Zicht: 8000 m
Verspreide wolken op 2000 ft
Verspreide wolken op 10000 ft
Tijdelijke
van 15 om 14 UTC tot 15 om 20 UTC
Zicht: 3000 m
Verspreide wolken op 4000 ft
Gebroken wolken op 10000 ft
nevel

TAF: VLSK 151100Z 1512/1612 09004KT 8000 SCT020 SCT100 TEMPO 1514/1520 3000 BR SCT040 BKN100

Waarnemingen en weersverwachtingen van meer dan 4000 vliegvelden (METAR en TAF).

De beschikbare stations zijn de gele en rode punten op de kaart.

Ga met uw muis naar het station om de naam te zien.

Klik dan om waarnemingen en weersverwachtingen te zien.

kaart wijzigen: klik op de groene knoppen met een zwart kruis om in te zoomen, op de groene knop met een streepje om uit te zoomen of op de groene pijlen voor aangrenzende kaarten.


METAR-TAF: